createdAt,value
2023-03-05T00:02:19.072Z,98624.09
2023-03-05T00:04:45.747Z,98624.38
2023-03-05T00:07:14.283Z,98627.13
2023-03-05T00:09:40.830Z,98626.81
2023-03-05T00:12:07.716Z,98632.88
2023-03-05T00:14:34.230Z,98630.16
2023-03-05T00:17:00.762Z,98619.59
2023-03-05T00:19:27.294Z,98622.97
2023-03-05T00:21:53.766Z,98622.84
2023-03-05T00:24:20.359Z,98617.81
2023-03-05T00:26:46.975Z,98616.25
2023-03-05T00:29:18.558Z,98621.59
2023-03-05T00:31:45.518Z,98611.53
2023-03-05T00:34:12.806Z,98615.81
2023-03-05T00:36:40.374Z,98602.41
2023-03-05T00:39:06.900Z,98607.84
2023-03-05T00:41:33.418Z,98607.28
2023-03-05T00:44:00.275Z,98604.78
2023-03-05T00:46:27.683Z,98608.19
2023-03-05T00:48:55.443Z,98599.59
2023-03-05T00:51:22.070Z,98601.97
2023-03-05T00:53:49.306Z,98600.63
2023-03-05T00:56:15.900Z,98600.94
2023-03-05T00:58:42.572Z,98595.06
2023-03-05T01:01:09.090Z,98593.72
2023-03-05T01:03:35.844Z,98586.09
2023-03-05T01:06:05.077Z,98596.34
2023-03-05T01:08:31.786Z,98587.47
2023-03-05T01:10:58.264Z,98593.44
2023-03-05T01:13:24.809Z,98584.97
2023-03-05T01:15:54.202Z,98584.78
2023-03-05T01:18:20.996Z,98579.34
2023-03-05T01:20:47.785Z,98579.25
2023-03-05T01:23:14.461Z,98582.56
2023-03-05T01:25:41.128Z,98578.06
2023-03-05T01:28:07.886Z,98576.19
2023-03-05T01:30:34.513Z,98563.13
2023-03-05T01:33:01.106Z,98564.72
2023-03-05T01:35:27.731Z,98559.34
2023-03-05T01:37:54.702Z,98563.66
2023-03-05T01:40:24.216Z,98557.47
2023-03-05T01:42:55.610Z,98549.53
2023-03-05T01:45:22.198Z,98549.44
2023-03-05T01:47:49.173Z,98543.16
2023-03-05T01:50:19.098Z,98544.84
2023-03-05T01:53:12.033Z,98545.06
2023-03-05T01:55:38.871Z,98538.97
2023-03-05T01:58:07.144Z,98542.44
2023-03-05T02:00:41.491Z,98538.88
2023-03-05T02:03:08.287Z,98534.47
2023-03-05T02:05:35.670Z,98529.97
2023-03-05T02:08:06.539Z,98536.88
2023-03-05T02:10:34.191Z,98528.94
2023-03-05T02:13:01.422Z,98525.50
2023-03-05T02:15:28.682Z,98516.69
2023-03-05T02:17:55.287Z,98515.78
2023-03-05T02:20:22.886Z,98512.22
2023-03-05T02:22:49.496Z,98509.47
2023-03-05T02:25:26.477Z,98503.41
2023-03-05T02:28:03.978Z,98508.63
2023-03-05T02:30:31.502Z,98510.31
2023-03-05T02:32:58.337Z,98505.81
2023-03-05T02:35:25.643Z,98506.66
2023-03-05T02:37:52.201Z,98504.66
2023-03-05T02:40:18.784Z,98508.09
2023-03-05T02:42:45.492Z,98502.25
2023-03-05T02:45:13.700Z,98496.09
2023-03-05T02:47:40.320Z,98504.66
2023-03-05T02:50:07.872Z,98493.47
2023-03-05T02:52:34.402Z,98488.38
2023-03-05T02:55:00.956Z,98491.09
2023-03-05T02:57:29.479Z,98483.69
2023-03-05T02:59:56.057Z,98486.69
2023-03-05T03:02:22.610Z,98481.06
2023-03-05T03:04:49.121Z,98474.34
2023-03-05T03:07:15.665Z,98475.00
2023-03-05T03:09:43.199Z,98472.69
2023-03-05T03:12:10.293Z,98473.75
2023-03-05T03:14:39.401Z,98461.72
2023-03-05T03:17:09.654Z,98469.44
2023-03-05T03:19:36.327Z,98465.06
2023-03-05T03:22:03.540Z,98466.50
2023-03-05T03:24:30.445Z,98462.09
2023-03-05T03:26:56.929Z,98463.88
2023-03-05T03:29:23.421Z,98466.50
2023-03-05T03:31:50.133Z,98458.16
2023-03-05T03:34:16.723Z,98456.34
2023-03-05T03:36:43.758Z,98459.31
2023-03-05T03:39:10.437Z,98449.56
2023-03-05T03:41:37.609Z,98441.84
2023-03-05T03:44:05.078Z,98442.59
2023-03-05T03:46:31.683Z,98440.06
2023-03-05T03:48:58.177Z,98439.84
2023-03-05T03:51:24.688Z,98443.19
2023-03-05T03:53:51.181Z,98434.31
2023-03-05T03:56:17.729Z,98430.63
2023-03-05T03:58:44.356Z,98435.88
2023-03-05T04:01:10.866Z,98439.44
2023-03-05T04:03:37.378Z,98428.78
2023-03-05T04:06:04.628Z,98431.72
2023-03-05T04:08:31.121Z,98432.88
2023-03-05T04:10:57.601Z,98422.09
2023-03-05T04:13:24.401Z,98428.56
2023-03-05T04:15:50.981Z,98429.31
2023-03-05T04:18:17.535Z,98423.88
2023-03-05T04:20:44.025Z,98421.91
2023-03-05T04:23:10.511Z,98420.66
2023-03-05T04:25:36.992Z,98412.22
2023-03-05T04:28:03.458Z,98420.03
2023-03-05T04:30:31.363Z,98411.25
2023-03-05T04:32:58.032Z,98415.94
2023-03-05T04:35:24.582Z,98410.72
2023-03-05T04:37:51.108Z,98413.56
2023-03-05T04:40:18.140Z,98405.59
2023-03-05T04:42:44.810Z,98408.44
2023-03-05T04:45:11.392Z,98409.16
2023-03-05T04:47:38.082Z,98413.34
2023-03-05T04:50:05.400Z,98402.25
2023-03-05T04:52:32.035Z,98409.97
2023-03-05T04:54:58.679Z,98405.50
2023-03-05T04:57:25.197Z,98400.59
2023-03-05T04:59:51.685Z,98405.78
2023-03-05T05:02:18.198Z,98390.56
2023-03-05T05:04:45.934Z,98396.47
2023-03-05T05:07:12.993Z,98397.53
2023-03-05T05:09:41.558Z,98401.63
2023-03-05T05:12:08.185Z,98393.72
2023-03-05T05:14:34.701Z,98392.66
2023-03-05T05:17:05.071Z,98392.75
2023-03-05T05:19:32.271Z,98389.94
2023-03-05T05:21:58.825Z,98387.84
2023-03-05T05:24:25.353Z,98393.94
2023-03-05T05:26:53.758Z,98390.88
2023-03-05T05:29:20.273Z,98394.75
2023-03-05T05:31:47.128Z,98394.22
2023-03-05T05:34:13.890Z,98390.25
2023-03-05T05:36:40.452Z,98390.78
2023-03-05T05:39:06.984Z,98390.97
2023-03-05T05:41:33.477Z,98397.75
2023-03-05T05:43:59.965Z,98390.56
2023-03-05T05:46:26.522Z,98389.09
2023-03-05T05:48:53.023Z,98388.47
2023-03-05T05:51:21.290Z,98388.88
2023-03-05T05:53:47.761Z,98392.66
2023-03-05T05:56:14.369Z,98383.69
2023-03-05T05:58:41.272Z,98393.72
2023-03-05T06:01:24.199Z,98386.59
2023-03-05T06:03:50.708Z,98391.63
2023-03-05T06:06:18.318Z,98390.44
2023-03-05T06:08:44.798Z,98388.25
2023-03-05T06:11:11.351Z,98389.75
2023-03-05T06:13:38.015Z,98392.88
2023-03-05T06:16:06.291Z,98386.16
2023-03-05T06:18:33.274Z,98392.75
2023-03-05T06:21:03.842Z,98393.50
2023-03-05T06:23:30.750Z,98390.66
2023-03-05T06:26:01.156Z,98395.03
2023-03-05T06:28:28.049Z,98388.56
2023-03-05T06:31:04.453Z,98390.88
2023-03-05T06:33:31.292Z,98393.25
2023-03-05T06:35:58.053Z,98394.72
2023-03-05T06:38:24.598Z,98389.50
2023-03-05T06:40:51.293Z,98388.63
2023-03-05T06:43:17.889Z,98380.69
2023-03-05T06:45:44.420Z,98390.41
2023-03-05T06:48:11.756Z,98384.22
2023-03-05T06:50:38.283Z,98380.97
2023-03-05T06:53:05.487Z,98382.28
2023-03-05T06:55:39.700Z,98380.69
2023-03-05T06:58:06.585Z,98383.69
2023-03-05T07:00:33.159Z,98380.97
2023-03-05T07:02:59.716Z,98382.75
2023-03-05T07:05:26.232Z,98376.69
2023-03-05T07:07:52.775Z,98381.34
2023-03-05T07:10:19.485Z,98380.44
2023-03-05T07:12:46.025Z,98374.66
2023-03-05T07:15:12.602Z,98375.28
2023-03-05T07:17:39.095Z,98377.69
2023-03-05T07:20:05.907Z,98379.47
2023-03-05T07:22:32.409Z,98378.53
2023-03-05T07:24:58.935Z,98375.47
2023-03-05T07:27:25.656Z,98371.06
2023-03-05T07:29:52.180Z,98372.63
2023-03-05T07:32:18.736Z,98372.63
2023-03-05T07:34:45.285Z,98368.22
2023-03-05T07:37:11.771Z,98373.66
2023-03-05T07:39:38.268Z,98364.75
2023-03-05T07:42:04.789Z,98359.84
2023-03-05T07:44:47.756Z,98364.25
2023-03-05T07:47:14.359Z,98362.84
2023-03-05T07:49:41.746Z,98365.34
2023-03-05T07:52:08.795Z,98363.13
2023-03-05T07:54:38.764Z,98362.72
2023-03-05T07:57:05.825Z,98375.03
2023-03-05T07:59:32.397Z,98366.69
2023-03-05T08:01:58.934Z,98361.69
2023-03-05T08:04:25.559Z,98362.06
2023-03-05T08:06:52.326Z,98363.28
2023-03-05T08:09:19.262Z,98356.16
2023-03-05T08:11:45.767Z,98357.91
2023-03-05T08:14:12.422Z,98360.16
2023-03-05T08:16:39.014Z,98355.97
2023-03-05T08:19:05.776Z,98367.97
2023-03-05T08:21:36.067Z,98351.81
2023-03-05T08:24:04.263Z,98349.94
2023-03-05T08:26:31.852Z,98354.56
2023-03-05T08:28:58.483Z,98354.91
2023-03-05T08:31:25.751Z,98350.03
2023-03-05T08:33:53.284Z,98347.91
2023-03-05T08:36:19.778Z,98349.94
2023-03-05T08:38:48.505Z,98349.84
2023-03-05T08:41:15.802Z,98355.16
2023-03-05T08:43:42.651Z,98348.78
2023-03-05T08:46:10.305Z,98354.47
2023-03-05T08:48:36.858Z,98350.88
2023-03-05T08:51:16.469Z,98348.88
2023-03-05T08:53:43.244Z,98345.06
2023-03-05T08:56:09.873Z,98341.81
2023-03-05T08:58:36.368Z,98337.19
2023-03-05T09:01:02.877Z,98338.22
2023-03-05T09:03:29.380Z,98342.19
2023-03-05T09:05:59.076Z,98339.63
2023-03-05T09:08:25.602Z,98337.34
2023-03-05T09:10:52.107Z,98333.66
2023-03-05T09:13:18.919Z,98332.50
2023-03-05T09:15:45.444Z,98332.25
2023-03-05T09:18:12.046Z,98329.75
2023-03-05T09:20:38.646Z,98328.00
2023-03-05T09:23:05.143Z,98332.50
2023-03-05T09:25:31.619Z,98323.81
2023-03-05T09:27:58.122Z,98316.78
2023-03-05T09:30:24.647Z,98314.03
2023-03-05T09:32:51.306Z,98319.78
2023-03-05T09:35:17.844Z,98313.19
2023-03-05T09:37:44.326Z,98311.44
2023-03-05T09:40:13.411Z,98311.06
2023-03-05T09:43:03.193Z,98309.22
2023-03-05T09:45:32.669Z,98305.78
2023-03-05T09:48:03.155Z,98301.88
2023-03-05T09:50:32.643Z,98298.53
2023-03-05T09:53:12.626Z,98298.53
2023-03-05T09:55:41.012Z,98292.88
2023-03-05T09:58:10.536Z,98293.91
2023-03-05T10:00:41.681Z,98295.50
2023-03-05T10:03:16.318Z,98285.72
2023-03-05T10:05:43.071Z,98293.25
2023-03-05T10:08:11.417Z,98285.03
2023-03-05T10:10:41.759Z,98288.16
2023-03-05T10:13:16.923Z,98296.56
2023-03-05T10:15:52.620Z,98284.41
2023-03-05T10:18:19.096Z,98292.44
2023-03-05T10:20:52.962Z,98284.19
2023-03-05T10:23:24.877Z,98284.66
2023-03-05T10:25:57.546Z,98281.50
2023-03-05T10:28:32.844Z,98280.91
2023-03-05T10:31:09.247Z,98276.19
2023-03-05T10:33:57.545Z,98272.56
2023-03-05T10:36:45.982Z,98274.44
2023-03-05T10:39:15.406Z,98270.88
2023-03-05T10:42:02.724Z,98265.84
2023-03-05T10:44:45.596Z,98261.31
2023-03-05T10:47:14.757Z,98269.06
2023-03-05T10:49:43.912Z,98267.00
2023-03-05T10:52:28.355Z,98264.47
2023-03-05T10:54:54.932Z,98250.63
2023-03-05T10:57:28.110Z,98252.25
2023-03-05T11:00:06.630Z,98249.00
2023-03-05T11:02:33.601Z,98249.13
2023-03-05T11:05:00.118Z,98246.44
2023-03-05T11:07:26.641Z,98245.63
2023-03-05T11:10:22.722Z,98236.69
2023-03-05T11:12:49.350Z,98238.13
2023-03-05T11:15:15.829Z,98233.19
2023-03-05T11:17:45.019Z,98230.38
2023-03-05T11:20:23.602Z,98222.41
2023-03-05T11:23:13.166Z,98223.25
2023-03-05T11:25:50.976Z,98216.81
2023-03-05T11:28:32.101Z,98213.69
2023-03-05T11:31:04.244Z,98216.75
2023-03-05T11:33:31.614Z,98211.56
2023-03-05T11:36:18.350Z,98204.66
2023-03-05T11:38:46.822Z,98204.72
2023-03-05T11:41:13.465Z,98206.03
2023-03-05T11:43:41.655Z,98200.50
2023-03-05T11:46:09.362Z,98193.56
2023-03-05T11:48:36.408Z,98194.47
2023-03-05T11:51:03.461Z,98195.06
2023-03-05T11:53:31.742Z,98191.09
2023-03-05T11:55:59.458Z,98185.69
2023-03-05T11:58:46.666Z,98188.53
2023-03-05T12:01:17.440Z,98184.13
2023-03-05T12:03:46.749Z,98182.88
2023-03-05T12:06:25.388Z,98179.47
2023-03-05T12:08:52.782Z,98169.78
2023-03-05T12:11:20.802Z,98172.03
2023-03-05T12:13:51.193Z,98160.94
2023-03-05T12:16:17.777Z,98154.16
2023-03-05T12:18:52.495Z,98157.91
2023-03-05T12:21:27.952Z,98155.56
2023-03-05T12:23:55.696Z,98143.78
2023-03-05T12:26:40.948Z,98146.56
2023-03-05T12:29:14.499Z,98140.56
2023-03-05T12:31:44.270Z,98140.19
2023-03-05T12:34:29.341Z,98138.03
2023-03-05T12:36:55.813Z,98132.00
2023-03-05T12:39:42.018Z,98125.91
2023-03-05T12:42:27.315Z,98126.38
2023-03-05T12:45:12.408Z,98117.59
2023-03-05T12:47:40.559Z,98108.28
2023-03-05T12:50:25.818Z,98105.44
2023-03-05T12:52:52.948Z,98101.63
2023-03-05T12:55:34.792Z,98098.97
2023-03-05T12:58:09.459Z,98096.44
2023-03-05T13:00:47.012Z,98092.25
2023-03-05T13:03:24.767Z,98102.16
2023-03-05T13:05:52.638Z,98096.66
2023-03-05T13:08:19.046Z,98088.09
2023-03-05T13:10:50.739Z,98083.00
2023-03-05T13:13:17.982Z,98087.00
2023-03-05T13:15:45.648Z,98093.19
2023-03-05T13:18:15.437Z,98085.41
2023-03-05T13:20:42.824Z,98083.50
2023-03-05T13:23:28.330Z,98090.13
2023-03-05T13:26:15.717Z,98085.88
2023-03-05T13:28:42.686Z,98086.06
2023-03-05T13:31:13.129Z,98079.53
2023-03-05T13:33:39.920Z,98078.88
2023-03-05T13:36:06.706Z,98084.50
2023-03-05T13:38:34.960Z,98085.19
2023-03-05T13:41:06.021Z,98081.31
2023-03-05T13:43:32.618Z,98076.16
2023-03-05T13:45:59.587Z,98071.31
2023-03-05T13:48:26.819Z,98073.28
2023-03-05T13:50:54.145Z,98065.59
2023-03-05T13:53:20.585Z,98061.56
2023-03-05T13:55:47.545Z,98059.69
2023-03-05T13:58:32.932Z,98062.44
2023-03-05T14:01:03.456Z,98056.84
2023-03-05T14:03:30.201Z,98054.34
2023-03-05T14:05:56.734Z,98052.53
2023-03-05T14:08:27.637Z,98052.00
2023-03-05T14:10:54.651Z,98051.25
2023-03-05T14:13:23.628Z,98052.00
2023-03-05T14:16:10.219Z,98041.53
2023-03-05T14:18:37.012Z,98042.34
2023-03-05T14:21:08.943Z,98044.16
2023-03-05T14:23:46.016Z,98041.22
2023-03-05T14:26:28.972Z,98041.22
2023-03-05T14:28:57.541Z,98029.59
2023-03-05T14:31:24.039Z,98037.44
2023-03-05T14:33:54.037Z,98031.75
2023-03-05T14:36:21.352Z,98022.06
2023-03-05T14:38:48.121Z,98024.41
2023-03-05T14:41:32.980Z,98024.78
2023-03-05T14:43:59.528Z,98022.16
2023-03-05T14:46:26.060Z,98016.47
2023-03-05T14:48:52.870Z,98017.97
2023-03-05T14:51:19.357Z,98006.53
2023-03-05T14:53:47.624Z,98008.72
2023-03-05T14:56:17.087Z,97999.84
2023-03-05T14:58:43.601Z,97997.75
2023-03-05T15:01:11.778Z,98002.22
2023-03-05T15:03:40.933Z,97992.97
2023-03-05T15:06:08.501Z,97996.53
2023-03-05T15:08:35.021Z,97988.22
2023-03-05T15:11:01.554Z,97984.06
2023-03-05T15:13:28.061Z,97985.59
2023-03-05T15:15:54.635Z,97977.34
2023-03-05T15:18:21.755Z,97978.72
2023-03-05T15:20:54.906Z,97975.81
2023-03-05T15:23:21.819Z,97967.94
2023-03-05T15:25:48.343Z,97963.25
2023-03-05T15:28:15.218Z,97963.25
2023-03-05T15:30:43.696Z,97967.25
2023-03-05T15:33:11.250Z,97965.22
2023-03-05T15:35:37.810Z,97961.97
2023-03-05T15:38:04.586Z,97955.81
2023-03-05T15:40:31.568Z,97965.88
2023-03-05T15:42:58.648Z,97955.09
2023-03-05T15:45:25.265Z,97955.72
2023-03-05T15:47:52.169Z,97947.75
2023-03-05T15:50:19.332Z,97940.16
2023-03-05T15:52:45.844Z,97944.94
2023-03-05T15:55:12.399Z,97940.50
2023-03-05T15:57:43.185Z,97935.56
2023-03-05T16:00:10.984Z,97940.84
2023-03-05T16:02:37.653Z,97930.31
2023-03-05T16:05:04.465Z,97936.13
2023-03-05T16:07:32.893Z,97930.25
2023-03-05T16:09:59.908Z,97923.50
2023-03-05T16:12:26.920Z,97916.31
2023-03-05T16:14:53.419Z,97921.75
2023-03-05T16:17:20.310Z,97922.84
2023-03-05T16:19:47.192Z,97912.03
2023-03-05T16:22:13.920Z,97913.06
2023-03-05T16:24:40.422Z,97910.78
2023-03-05T16:27:06.978Z,97903.72
2023-03-05T16:29:33.902Z,97908.63
2023-03-05T16:32:02.456Z,97904.31
2023-03-05T16:34:29.420Z,97899.06
2023-03-05T16:36:56.033Z,97901.94
2023-03-05T16:39:23.085Z,97906.25
2023-03-05T16:41:50.011Z,97899.00
2023-03-05T16:44:16.512Z,97894.00
2023-03-05T16:46:49.138Z,97895.91
2023-03-05T16:49:16.242Z,97888.22
2023-03-05T16:51:42.728Z,97889.75
2023-03-05T16:54:10.231Z,97885.59
2023-03-05T16:56:36.846Z,97885.59
2023-03-05T16:59:04.312Z,97883.91
2023-03-05T17:01:30.884Z,97886.09
2023-03-05T17:03:58.006Z,97886.47
2023-03-05T17:06:25.803Z,97882.22
2023-03-05T17:08:52.641Z,97877.47
2023-03-05T17:11:19.832Z,97885.75
2023-03-05T17:13:48.812Z,97881.03
2023-03-05T17:16:16.220Z,97887.94
2023-03-05T17:18:43.000Z,97873.06
2023-03-05T17:21:09.636Z,97877.59
2023-03-05T17:23:36.367Z,97880.56
2023-03-05T17:26:04.385Z,97875.00
2023-03-05T17:28:30.956Z,97879.22
2023-03-05T17:31:00.180Z,97880.09
2023-03-05T17:33:27.679Z,97881.88
2023-03-05T17:35:55.493Z,97884.25
2023-03-05T17:38:22.286Z,97882.81
2023-03-05T17:40:48.991Z,97880.56
2023-03-05T17:43:15.577Z,97881.06
2023-03-05T17:45:42.237Z,97881.66
2023-03-05T17:48:08.809Z,97878.44
2023-03-05T17:50:35.630Z,97883.19
2023-03-05T17:53:02.145Z,97886.00
2023-03-05T17:55:28.979Z,97884.34
2023-03-05T17:57:55.474Z,97876.31
2023-03-05T18:00:25.652Z,97882.00
2023-03-05T18:02:52.468Z,97873.94
2023-03-05T18:05:19.772Z,97881.91
2023-03-05T18:07:46.316Z,97872.16
2023-03-05T18:10:13.423Z,97878.56
2023-03-05T18:12:39.989Z,97878.91
2023-03-05T18:15:07.664Z,97866.56
2023-03-05T18:17:34.171Z,97868.09
2023-03-05T18:20:03.831Z,97859.66
2023-03-05T18:22:30.597Z,97866.91
2023-03-05T18:24:58.176Z,97867.75
2023-03-05T18:27:25.314Z,97859.44
2023-03-05T18:29:54.224Z,97865.00
2023-03-05T18:32:21.671Z,97857.84
2023-03-05T18:34:50.504Z,97856.78
2023-03-05T18:37:17.181Z,97850.47
2023-03-05T18:39:43.674Z,97843.59
2023-03-05T18:42:13.447Z,97836.56
2023-03-05T18:44:40.417Z,97849.53
2023-03-05T18:47:06.939Z,97846.66
2023-03-05T18:49:33.831Z,97844.16
2023-03-05T18:52:00.337Z,97846.22
2023-03-05T18:54:26.851Z,97850.47
2023-03-05T18:56:53.378Z,97843.69
2023-03-05T18:59:19.847Z,97847.66
2023-03-05T19:01:46.400Z,97842.34
2023-03-05T19:04:13.019Z,97845.53
2023-03-05T19:06:39.591Z,97842.66
2023-03-05T19:09:16.994Z,97839.09
2023-03-05T19:11:43.974Z,97846.72
2023-03-05T19:14:10.657Z,97842.22
2023-03-05T19:16:43.495Z,97838.50
2023-03-05T19:19:19.928Z,97832.81
2023-03-05T19:21:47.452Z,97832.75
2023-03-05T19:24:14.488Z,97828.47
2023-03-05T19:26:41.211Z,97828.22
2023-03-05T19:29:07.991Z,97830.56
2023-03-05T19:31:34.705Z,97817.50
2023-03-05T19:34:01.862Z,97818.34
2023-03-05T19:36:28.373Z,97819.44
2023-03-05T19:38:55.471Z,97818.25
2023-03-05T19:41:22.105Z,97814.50
2023-03-05T19:43:51.791Z,97814.81
2023-03-05T19:46:18.893Z,97811.03
2023-03-05T19:48:45.504Z,97812.81
2023-03-05T19:51:13.352Z,97804.97
2023-03-05T19:53:40.670Z,97802.81
2023-03-05T19:56:07.644Z,97801.59
2023-03-05T19:58:34.597Z,97804.59
2023-03-05T20:01:07.653Z,97806.28
2023-03-05T20:03:34.274Z,97799.75
2023-03-05T20:06:00.784Z,97794.53
2023-03-05T20:08:27.294Z,97796.31
2023-03-05T20:10:53.805Z,97787.16
2023-03-05T20:13:20.344Z,97788.47
2023-03-05T20:15:46.879Z,97793.56
2023-03-05T20:18:13.421Z,97784.53
2023-03-05T20:20:39.953Z,97784.81
2023-03-05T20:23:06.490Z,97775.19
2023-03-05T20:25:33.368Z,97776.47
2023-03-05T20:28:00.083Z,97776.41
2023-03-05T20:30:26.635Z,97777.56
2023-03-05T20:32:53.240Z,97775.44
2023-03-05T20:35:19.906Z,97772.84
2023-03-05T20:37:52.360Z,97774.38
2023-03-05T20:40:18.870Z,97773.41
2023-03-05T20:42:45.405Z,97761.53
2023-03-05T20:45:12.132Z,97757.03
2023-03-05T20:47:42.453Z,97759.41
2023-03-05T20:50:12.753Z,97755.81
2023-03-05T20:52:39.402Z,97759.88
2023-03-05T20:55:06.664Z,97761.41
2023-03-05T20:57:33.219Z,97754.03
2023-03-05T21:00:00.428Z,97757.22
2023-03-05T21:02:27.173Z,97751.03
2023-03-05T21:04:53.665Z,97756.25
2023-03-05T21:07:20.162Z,97754.34
2023-03-05T21:09:46.668Z,97752.56
2023-03-05T21:12:13.187Z,97747.22
2023-03-05T21:14:40.831Z,97747.22
2023-03-05T21:17:07.924Z,97745.34
2023-03-05T21:19:34.439Z,97744.38
2023-03-05T21:22:01.004Z,97740.09
2023-03-05T21:24:32.857Z,97742.56
2023-03-05T21:26:59.390Z,97745.06
2023-03-05T21:29:25.902Z,97735.44
2023-03-05T21:31:52.786Z,97738.22
2023-03-05T21:34:19.628Z,97734.63
2023-03-05T21:36:46.141Z,97728.94
2023-03-05T21:39:12.618Z,97723.59
2023-03-05T21:41:39.118Z,97724.44
2023-03-05T21:44:06.003Z,97714.78
2023-03-05T21:46:32.635Z,97714.53
2023-03-05T21:48:59.133Z,97705.88
2023-03-05T21:51:30.647Z,97705.72
2023-03-05T21:53:57.173Z,97702.44
2023-03-05T21:56:25.513Z,97700.66
2023-03-05T21:58:52.861Z,97691.03
2023-03-05T22:01:21.146Z,97697.59
2023-03-05T22:03:47.961Z,97695.22
2023-03-05T22:06:15.525Z,97688.78
2023-03-05T22:08:42.098Z,97695.69
2023-03-05T22:11:09.585Z,97687.38
2023-03-05T22:13:36.484Z,97680.25
2023-03-05T22:16:02.980Z,97683.69
2023-03-05T22:18:30.346Z,97680.94
2023-03-05T22:20:57.470Z,97676.41
2023-03-05T22:23:24.624Z,97679.84
2023-03-05T22:26:05.067Z,97676.41
2023-03-05T22:28:31.664Z,97671.91
2023-03-05T22:30:58.439Z,97667.50
2023-03-05T22:33:25.506Z,97670.00
2023-03-05T22:35:52.072Z,97667.66
2023-03-05T22:38:19.051Z,97657.88
2023-03-05T22:40:46.979Z,97651.44
2023-03-05T22:43:13.766Z,97648.00
2023-03-05T22:45:40.388Z,97641.81
2023-03-05T22:48:07.112Z,97639.91
2023-03-05T22:50:33.594Z,97643.63
2023-03-05T22:53:00.123Z,97636.84
2023-03-05T22:55:26.630Z,97635.16
2023-03-05T22:57:53.258Z,97636.13
2023-03-05T23:00:23.518Z,97632.81
2023-03-05T23:02:50.673Z,97626.78
2023-03-05T23:05:17.367Z,97628.69
2023-03-05T23:07:44.734Z,97628.69
2023-03-05T23:10:13.007Z,97618.81
2023-03-05T23:12:41.651Z,97617.13
2023-03-05T23:15:10.420Z,97617.28
2023-03-05T23:17:37.100Z,97615.50
2023-03-05T23:20:05.107Z,97601.34
2023-03-05T23:22:32.126Z,97595.16
2023-03-05T23:24:58.626Z,97597.66
2023-03-05T23:27:25.163Z,97594.22
2023-03-05T23:30:08.183Z,97595.97
2023-03-05T23:32:35.381Z,97597.50
2023-03-05T23:35:01.981Z,97591.59
2023-03-05T23:37:28.490Z,97584.69
2023-03-05T23:39:54.983Z,97586.63
2023-03-05T23:42:21.723Z,97578.91
2023-03-05T23:44:48.190Z,97581.63
2023-03-05T23:47:14.681Z,97588.41
2023-03-05T23:49:41.214Z,97577.38
2023-03-05T23:52:07.814Z,97571.44
2023-03-05T23:54:34.541Z,97580.00
2023-03-05T23:57:01.042Z,97565.28
2023-03-05T23:59:27.550Z,97561.00
